sensor_id;sensor_type;location;lat;lon;timestamp;P1;durP1;ratioP1;P2;durP2;ratioP2
32038;SDS011;18549;42.286;22.688;2022-08-21T00:00:17;6.07;;;2.03;;
32038;SDS011;18549;42.286;22.688;2022-08-21T00:02:50;9.15;;;2.50;;
32038;SDS011;18549;42.286;22.688;2022-08-21T00:05:24;7.78;;;2.97;;
32038;SDS011;18549;42.286;22.688;2022-08-21T00:07:52;9.13;;;2.50;;
32038;SDS011;18549;42.286;22.688;2022-08-21T00:10:20;5.60;;;2.42;;
32038;SDS011;18549;42.286;22.688;2022-08-21T00:12:52;6.55;;;2.20;;
32038;SDS011;18549;42.286;22.688;2022-08-21T00:15:28;7.47;;;2.78;;
32038;SDS011;18549;42.286;22.688;2022-08-21T00:18:27;4.87;;;2.80;;
32038;SDS011;18549;42.286;22.688;2022-08-21T00:21:00;7.70;;;2.87;;
32038;SDS011;18549;42.286;22.688;2022-08-21T00:23:28;7.55;;;2.40;;
32038;SDS011;18549;42.286;22.688;2022-08-21T00:25:56;5.82;;;2.25;;
32038;SDS011;18549;42.286;22.688;2022-08-21T00:28:24;3.40;;;2.10;;
32038;SDS011;18549;42.286;22.688;2022-08-21T00:30:52;9.43;;;2.58;;
32038;SDS011;18549;42.286;22.688;2022-08-21T00:33:20;9.50;;;2.90;;
32038;SDS011;18549;42.286;22.688;2022-08-21T00:35:47;7.25;;;2.78;;
32038;SDS011;18549;42.286;22.688;2022-08-21T00:38:17;8.25;;;3.03;;
32038;SDS011;18549;42.286;22.688;2022-08-21T00:40:47;7.68;;;2.70;;
32038;SDS011;18549;42.286;22.688;2022-08-21T00:43:20;11.75;;;2.62;;
32038;SDS011;18549;42.286;22.688;2022-08-21T00:45:50;9.18;;;2.20;;
32038;SDS011;18549;42.286;22.688;2022-08-21T00:48:19;8.70;;;2.37;;
32038;SDS011;18549;42.286;22.688;2022-08-21T00:50:49;7.57;;;2.78;;
32038;SDS011;18549;42.286;22.688;2022-08-21T00:53:21;6.53;;;2.87;;
32038;SDS011;18549;42.286;22.688;2022-08-21T00:55:50;8.63;;;2.72;;
32038;SDS011;18549;42.286;22.688;2022-08-21T00:58:18;7.57;;;3.28;;
32038;SDS011;18549;42.286;22.688;2022-08-21T01:00:46;11.25;;;3.67;;
32038;SDS011;18549;42.286;22.688;2022-08-21T01:03:16;17.73;;;5.55;;
32038;SDS011;18549;42.286;22.688;2022-08-21T01:05:45;11.50;;;5.22;;
32038;SDS011;18549;42.286;22.688;2022-08-21T01:08:13;9.57;;;4.18;;
32038;SDS011;18549;42.286;22.688;2022-08-21T01:10:43;8.82;;;3.12;;
32038;SDS011;18549;42.286;22.688;2022-08-21T01:13:12;9.18;;;3.12;;
32038;SDS011;18549;42.286;22.688;2022-08-21T01:15:42;12.37;;;3.67;;
32038;SDS011;18549;42.286;22.688;2022-08-21T01:18:12;6.85;;;2.42;;
32038;SDS011;18549;42.286;22.688;2022-08-21T01:20:42;5.28;;;2.60;;
32038;SDS011;18549;42.286;22.688;2022-08-21T01:23:13;9.10;;;3.05;;
32038;SDS011;18549;42.286;22.688;2022-08-21T01:25:40;5.15;;;2.55;;
32038;SDS011;18549;42.286;22.688;2022-08-21T01:28:11;4.07;;;2.22;;
32038;SDS011;18549;42.286;22.688;2022-08-21T01:30:42;10.23;;;2.58;;
32038;SDS011;18549;42.286;22.688;2022-08-21T01:33:10;8.77;;;3.35;;
32038;SDS011;18549;42.286;22.688;2022-08-21T01:35:38;6.72;;;2.95;;
32038;SDS011;18549;42.286;22.688;2022-08-21T01:38:06;9.38;;;2.85;;
32038;SDS011;18549;42.286;22.688;2022-08-21T01:40:35;10.43;;;3.00;;
32038;SDS011;18549;42.286;22.688;2022-08-21T01:43:03;5.78;;;2.22;;
32038;SDS011;18549;42.286;22.688;2022-08-21T01:45:30;7.47;;;3.15;;
32038;SDS011;18549;42.286;22.688;2022-08-21T01:47:58;5.10;;;2.75;;
32038;SDS011;18549;42.286;22.688;2022-08-21T01:50:25;5.43;;;2.65;;
32038;SDS011;18549;42.286;22.688;2022-08-21T01:52:53;6.47;;;3.20;;
32038;SDS011;18549;42.286;22.688;2022-08-21T01:55:20;10.50;;;3.40;;
32038;SDS011;18549;42.286;22.688;2022-08-21T01:57:49;13.13;;;3.25;;
32038;SDS011;18549;42.286;22.688;2022-08-21T02:00:19;7.65;;;3.25;;
32038;SDS011;18549;42.286;22.688;2022-08-21T02:02:49;10.10;;;2.72;;
32038;SDS011;18549;42.286;22.688;2022-08-21T02:05:17;6.65;;;3.08;;
32038;SDS011;18549;42.286;22.688;2022-08-21T02:07:47;9.60;;;3.22;;
32038;SDS011;18549;42.286;22.688;2022-08-21T02:10:17;6.15;;;3.33;;
32038;SDS011;18549;42.286;22.688;2022-08-21T02:12:46;10.93;;;3.65;;
32038;SDS011;18549;42.286;22.688;2022-08-21T02:15:16;14.68;;;3.25;;
32038;SDS011;18549;42.286;22.688;2022-08-21T02:17:45;8.05;;;2.85;;
32038;SDS011;18549;42.286;22.688;2022-08-21T02:20:15;8.43;;;3.25;;
32038;SDS011;18549;42.286;22.688;2022-08-21T02:22:44;10.52;;;3.25;;
32038;SDS011;18549;42.286;22.688;2022-08-21T02:25:11;11.40;;;3.58;;
32038;SDS011;18549;42.286;22.688;2022-08-21T02:27:39;11.05;;;3.33;;
32038;SDS011;18549;42.286;22.688;2022-08-21T02:30:10;10.02;;;3.53;;
32038;SDS011;18549;42.286;22.688;2022-08-21T02:32:40;8.55;;;3.40;;
32038;SDS011;18549;42.286;22.688;2022-08-21T02:35:08;5.28;;;3.20;;
32038;SDS011;18549;42.286;22.688;2022-08-21T02:37:42;9.70;;;3.35;;
32038;SDS011;18549;42.286;22.688;2022-08-21T02:40:12;11.82;;;3.30;;
32038;SDS011;18549;42.286;22.688;2022-08-21T02:42:40;3.40;;;3.00;;
32038;SDS011;18549;42.286;22.688;2022-08-21T02:45:09;5.65;;;3.10;;
32038;SDS011;18549;42.286;22.688;2022-08-21T02:47:36;11.57;;;3.65;;
32038;SDS011;18549;42.286;22.688;2022-08-21T02:50:05;8.35;;;3.25;;
32038;SDS011;18549;42.286;22.688;2022-08-21T02:52:34;12.70;;;3.28;;
32038;SDS011;18549;42.286;22.688;2022-08-21T02:55:02;9.02;;;3.62;;
32038;SDS011;18549;42.286;22.688;2022-08-21T02:57:30;9.27;;;4.22;;
32038;SDS011;18549;42.286;22.688;2022-08-21T02:59:58;9.25;;;3.72;;
32038;SDS011;18549;42.286;22.688;2022-08-21T03:02:26;6.50;;;3.45;;
32038;SDS011;18549;42.286;22.688;2022-08-21T03:04:53;5.53;;;3.45;;
32038;SDS011;18549;42.286;22.688;2022-08-21T03:07:22;8.73;;;2.70;;
32038;SDS011;18549;42.286;22.688;2022-08-21T03:09:50;8.43;;;3.10;;
32038;SDS011;18549;42.286;22.688;2022-08-21T03:12:17;8.13;;;3.62;;
32038;SDS011;18549;42.286;22.688;2022-08-21T03:14:47;8.02;;;3.30;;
32038;SDS011;18549;42.286;22.688;2022-08-21T03:17:15;10.57;;;3.83;;
32038;SDS011;18549;42.286;22.688;2022-08-21T03:19:43;9.30;;;3.55;;
32038;SDS011;18549;42.286;22.688;2022-08-21T03:22:10;7.57;;;3.28;;
32038;SDS011;18549;42.286;22.688;2022-08-21T03:24:39;7.37;;;3.83;;
32038;SDS011;18549;42.286;22.688;2022-08-21T03:27:06;8.68;;;3.50;;
32038;SDS011;18549;42.286;22.688;2022-08-21T03:29:34;3.95;;;3.50;;
32038;SDS011;18549;42.286;22.688;2022-08-21T03:32:02;13.27;;;3.65;;
32038;SDS011;18549;42.286;22.688;2022-08-21T03:34:29;12.40;;;4.50;;
32038;SDS011;18549;42.286;22.688;2022-08-21T03:36:57;6.57;;;4.70;;
32038;SDS011;18549;42.286;22.688;2022-08-21T03:39:24;5.80;;;4.40;;
32038;SDS011;18549;42.286;22.688;2022-08-21T03:41:53;11.70;;;5.03;;
32038;SDS011;18549;42.286;22.688;2022-08-21T03:44:21;8.18;;;4.93;;
32038;SDS011;18549;42.286;22.688;2022-08-21T03:46:48;10.77;;;5.85;;
32038;SDS011;18549;42.286;22.688;2022-08-21T03:49:16;12.43;;;5.82;;
32038;SDS011;18549;42.286;22.688;2022-08-21T03:51:43;15.02;;;4.97;;
32038;SDS011;18549;42.286;22.688;2022-08-21T03:54:11;12.70;;;5.78;;
32038;SDS011;18549;42.286;22.688;2022-08-21T03:56:39;18.50;;;5.85;;
32038;SDS011;18549;42.286;22.688;2022-08-21T03:59:08;13.30;;;4.78;;
32038;SDS011;18549;42.286;22.688;2022-08-21T04:01:36;18.08;;;5.70;;
32038;SDS011;18549;42.286;22.688;2022-08-21T04:04:04;10.98;;;5.97;;
32038;SDS011;18549;42.286;22.688;2022-08-21T04:06:34;13.35;;;5.70;;
32038;SDS011;18549;42.286;22.688;2022-08-21T04:09:02;19.65;;;6.12;;
32038;SDS011;18549;42.286;22.688;2022-08-21T04:11:29;10.18;;;6.57;;
32038;SDS011;18549;42.286;22.688;2022-08-21T04:13:57;10.60;;;6.15;;
32038;SDS011;18549;42.286;22.688;2022-08-21T04:16:26;10.07;;;4.93;;
32038;SDS011;18549;42.286;22.688;2022-08-21T04:18:55;9.95;;;4.37;;
32038;SDS011;18549;42.286;22.688;2022-08-21T04:21:22;11.10;;;4.47;;
32038;SDS011;18549;42.286;22.688;2022-08-21T04:23:51;11.45;;;4.47;;
32038;SDS011;18549;42.286;22.688;2022-08-21T04:26:21;9.07;;;4.25;;
32038;SDS011;18549;42.286;22.688;2022-08-21T04:28:48;12.00;;;5.47;;
32038;SDS011;18549;42.286;22.688;2022-08-21T04:31:16;7.80;;;4.78;;
32038;SDS011;18549;42.286;22.688;2022-08-21T04:33:45;11.48;;;5.95;;
32038;SDS011;18549;42.286;22.688;2022-08-21T04:36:12;11.10;;;7.20;;
32038;SDS011;18549;42.286;22.688;2022-08-21T04:38:40;8.55;;;6.85;;
32038;SDS011;18549;42.286;22.688;2022-08-21T04:41:08;9.95;;;7.28;;
32038;SDS011;18549;42.286;22.688;2022-08-21T04:43:37;8.25;;;5.90;;
32038;SDS011;18549;42.286;22.688;2022-08-21T04:46:06;9.88;;;5.10;;
32038;SDS011;18549;42.286;22.688;2022-08-21T04:48:33;10.23;;;6.12;;
32038;SDS011;18549;42.286;22.688;2022-08-21T04:51:03;15.38;;;6.40;;
32038;SDS011;18549;42.286;22.688;2022-08-21T04:53:34;9.65;;;5.35;;
32038;SDS011;18549;42.286;22.688;2022-08-21T04:56:05;13.45;;;4.97;;
32038;SDS011;18549;42.286;22.688;2022-08-21T04:58:35;12.63;;;4.97;;
32038;SDS011;18549;42.286;22.688;2022-08-21T05:01:05;11.12;;;4.90;;
32038;SDS011;18549;42.286;22.688;2022-08-21T05:03:36;12.52;;;5.30;;
32038;SDS011;18549;42.286;22.688;2022-08-21T05:06:08;9.63;;;5.10;;
32038;SDS011;18549;42.286;22.688;2022-08-21T05:08:38;14.87;;;6.18;;
32038;SDS011;18549;42.286;22.688;2022-08-21T05:11:08;11.32;;;6.05;;
32038;SDS011;18549;42.286;22.688;2022-08-21T05:13:36;18.35;;;6.25;;
32038;SDS011;18549;42.286;22.688;2022-08-21T05:16:05;9.65;;;5.50;;
32038;SDS011;18549;42.286;22.688;2022-08-21T05:18:33;11.18;;;5.90;;
32038;SDS011;18549;42.286;22.688;2022-08-21T05:21:01;8.43;;;5.93;;
32038;SDS011;18549;42.286;22.688;2022-08-21T05:23:31;8.27;;;5.68;;
32038;SDS011;18549;42.286;22.688;2022-08-21T05:25:58;12.02;;;5.82;;
32038;SDS011;18549;42.286;22.688;2022-08-21T05:28:26;9.50;;;6.18;;
32038;SDS011;18549;42.286;22.688;2022-08-21T05:30:54;11.07;;;6.25;;
32038;SDS011;18549;42.286;22.688;2022-08-21T05:33:21;8.40;;;5.80;;
32038;SDS011;18549;42.286;22.688;2022-08-21T05:35:49;10.50;;;6.15;;
32038;SDS011;18549;42.286;22.688;2022-08-21T05:38:17;9.85;;;6.57;;
32038;SDS011;18549;42.286;22.688;2022-08-21T05:40:46;11.45;;;7.68;;
32038;SDS011;18549;42.286;22.688;2022-08-21T05:43:13;15.35;;;7.03;;
32038;SDS011;18549;42.286;22.688;2022-08-21T05:45:41;9.32;;;5.62;;
32038;SDS011;18549;42.286;22.688;2022-08-21T05:48:10;9.43;;;6.87;;
32038;SDS011;18549;42.286;22.688;2022-08-21T05:50:39;10.45;;;8.93;;
32038;SDS011;18549;42.286;22.688;2022-08-21T05:53:07;16.73;;;7.90;;
32038;SDS011;18549;42.286;22.688;2022-08-21T05:55:35;15.73;;;9.00;;
32038;SDS011;18549;42.286;22.688;2022-08-21T05:58:05;12.63;;;8.45;;
32038;SDS011;18549;42.286;22.688;2022-08-21T06:00:32;13.23;;;7.05;;
32038;SDS011;18549;42.286;22.688;2022-08-21T06:03:00;8.93;;;7.37;;
32038;SDS011;18549;42.286;22.688;2022-08-21T06:05:27;8.18;;;6.35;;
32038;SDS011;18549;42.286;22.688;2022-08-21T06:07:55;7.78;;;6.57;;
32038;SDS011;18549;42.286;22.688;2022-08-21T06:10:23;12.73;;;6.93;;
32038;SDS011;18549;42.286;22.688;2022-08-21T06:12:52;14.15;;;6.00;;
32038;SDS011;18549;42.286;22.688;2022-08-21T06:15:23;12.32;;;6.75;;
32038;SDS011;18549;42.286;22.688;2022-08-21T06:17:51;14.60;;;8.80;;
32038;SDS011;18549;42.286;22.688;2022-08-21T06:20:20;14.90;;;7.72;;
32038;SDS011;18549;42.286;22.688;2022-08-21T06:22:47;20.08;;;7.80;;
32038;SDS011;18549;42.286;22.688;2022-08-21T06:25:15;10.23;;;7.10;;
32038;SDS011;18549;42.286;22.688;2022-08-21T06:27:43;15.68;;;8.05;;
32038;SDS011;18549;42.286;22.688;2022-08-21T06:30:12;12.23;;;7.28;;
32038;SDS011;18549;42.286;22.688;2022-08-21T06:32:42;13.18;;;7.50;;
32038;SDS011;18549;42.286;22.688;2022-08-21T06:35:10;11.05;;;7.05;;
32038;SDS011;18549;42.286;22.688;2022-08-21T06:37:39;23.38;;;8.45;;
32038;SDS011;18549;42.286;22.688;2022-08-21T06:40:07;11.25;;;7.57;;
32038;SDS011;18549;42.286;22.688;2022-08-21T06:42:35;11.88;;;8.13;;
32038;SDS011;18549;42.286;22.688;2022-08-21T06:45:03;9.45;;;7.60;;
32038;SDS011;18549;42.286;22.688;2022-08-21T06:47:31;12.65;;;7.03;;
32038;SDS011;18549;42.286;22.688;2022-08-21T06:50:00;14.18;;;7.55;;
32038;SDS011;18549;42.286;22.688;2022-08-21T06:52:29;14.32;;;7.12;;
32038;SDS011;18549;42.286;22.688;2022-08-21T06:54:56;16.05;;;6.68;;
32038;SDS011;18549;42.286;22.688;2022-08-21T06:57:24;13.70;;;9.13;;
32038;SDS011;18549;42.286;22.688;2022-08-21T06:59:51;13.25;;;9.85;;
32038;SDS011;18549;42.286;22.688;2022-08-21T07:02:19;13.95;;;8.80;;
32038;SDS011;18549;42.286;22.688;2022-08-21T07:04:47;21.37;;;8.32;;
32038;SDS011;18549;42.286;22.688;2022-08-21T07:07:16;11.32;;;7.65;;
32038;SDS011;18549;42.286;22.688;2022-08-21T07:09:43;11.63;;;9.55;;
32038;SDS011;18549;42.286;22.688;2022-08-21T07:12:11;12.45;;;8.32;;
32038;SDS011;18549;42.286;22.688;2022-08-21T07:14:39;8.77;;;7.25;;
32038;SDS011;18549;42.286;22.688;2022-08-21T07:17:08;12.85;;;7.57;;
32038;SDS011;18549;42.286;22.688;2022-08-21T07:19:36;14.75;;;8.27;;
32038;SDS011;18549;42.286;22.688;2022-08-21T07:22:03;12.55;;;7.00;;
32038;SDS011;18549;42.286;22.688;2022-08-21T07:24:33;18.42;;;8.68;;
32038;SDS011;18549;42.286;22.688;2022-08-21T07:27:00;11.77;;;8.70;;
32038;SDS011;18549;42.286;22.688;2022-08-21T07:29:28;8.40;;;6.68;;
32038;SDS011;18549;42.286;22.688;2022-08-21T07:31:56;11.30;;;6.87;;
32038;SDS011;18549;42.286;22.688;2022-08-21T07:34:23;7.05;;;6.15;;
32038;SDS011;18549;42.286;22.688;2022-08-21T07:36:51;10.90;;;6.55;;
32038;SDS011;18549;42.286;22.688;2022-08-21T07:39:18;8.75;;;6.97;;
32038;SDS011;18549;42.286;22.688;2022-08-21T07:41:47;12.05;;;7.25;;
32038;SDS011;18549;42.286;22.688;2022-08-21T07:44:14;10.95;;;7.20;;
32038;SDS011;18549;42.286;22.688;2022-08-21T07:46:42;15.88;;;7.10;;
32038;SDS011;18549;42.286;22.688;2022-08-21T07:49:09;9.10;;;6.82;;
32038;SDS011;18549;42.286;22.688;2022-08-21T07:51:37;11.70;;;6.18;;
32038;SDS011;18549;42.286;22.688;2022-08-21T07:54:05;10.80;;;6.95;;
32038;SDS011;18549;42.286;22.688;2022-08-21T07:56:33;11.27;;;7.18;;
32038;SDS011;18549;42.286;22.688;2022-08-21T07:59:02;21.08;;;6.95;;
32038;SDS011;18549;42.286;22.688;2022-08-21T08:01:30;7.22;;;6.53;;
32038;SDS011;18549;42.286;22.688;2022-08-21T08:03:57;8.07;;;6.62;;
32038;SDS011;18549;42.286;22.688;2022-08-21T08:06:27;17.37;;;8.75;;
32038;SDS011;18549;42.286;22.688;2022-08-21T08:08:55;8.93;;;6.28;;
32038;SDS011;18549;42.286;22.688;2022-08-21T08:11:23;13.10;;;6.45;;
32038;SDS011;18549;42.286;22.688;2022-08-21T08:13:51;6.65;;;5.60;;
32038;SDS011;18549;42.286;22.688;2022-08-21T08:16:20;17.50;;;6.18;;
32038;SDS011;18549;42.286;22.688;2022-08-21T08:18:48;8.23;;;6.18;;
32038;SDS011;18549;42.286;22.688;2022-08-21T08:21:16;6.70;;;5.80;;
32038;SDS011;18549;42.286;22.688;2022-08-21T08:23:46;13.95;;;6.78;;
32038;SDS011;18549;42.286;22.688;2022-08-21T08:26:14;12.88;;;5.87;;
32038;SDS011;18549;42.286;22.688;2022-08-21T08:28:42;7.60;;;5.55;;
32038;SDS011;18549;42.286;22.688;2022-08-21T08:31:12;10.60;;;4.97;;
32038;SDS011;18549;42.286;22.688;2022-08-21T08:33:41;16.10;;;6.35;;
32038;SDS011;18549;42.286;22.688;2022-08-21T08:36:12;9.90;;;5.47;;
32038;SDS011;18549;42.286;22.688;2022-08-21T08:38:41;10.52;;;5.57;;
32038;SDS011;18549;42.286;22.688;2022-08-21T08:41:11;11.05;;;5.30;;
32038;SDS011;18549;42.286;22.688;2022-08-21T08:43:41;9.52;;;6.22;;
32038;SDS011;18549;42.286;22.688;2022-08-21T08:46:15;6.43;;;5.05;;
32038;SDS011;18549;42.286;22.688;2022-08-21T08:48:48;7.68;;;5.57;;
32038;SDS011;18549;42.286;22.688;2022-08-21T08:51:21;12.57;;;6.18;;
32038;SDS011;18549;42.286;22.688;2022-08-21T08:53:52;9.60;;;5.97;;
32038;SDS011;18549;42.286;22.688;2022-08-21T08:56:26;12.98;;;5.70;;
32038;SDS011;18549;42.286;22.688;2022-08-21T08:58:57;13.68;;;6.10;;
32038;SDS011;18549;42.286;22.688;2022-08-21T09:01:34;7.50;;;5.53;;
32038;SDS011;18549;42.286;22.688;2022-08-21T09:04:04;7.95;;;6.22;;
32038;SDS011;18549;42.286;22.688;2022-08-21T09:06:35;11.95;;;5.45;;
32038;SDS011;18549;42.286;22.688;2022-08-21T09:09:17;7.68;;;4.95;;
32038;SDS011;18549;42.286;22.688;2022-08-21T09:11:57;9.60;;;4.70;;
32038;SDS011;18549;42.286;22.688;2022-08-21T09:14:31;14.20;;;5.55;;
32038;SDS011;18549;42.286;22.688;2022-08-21T09:17:15;8.98;;;4.20;;
32038;SDS011;18549;42.286;22.688;2022-08-21T09:19:59;8.15;;;4.22;;
32038;SDS011;18549;42.286;22.688;2022-08-21T09:22:41;10.52;;;3.97;;
32038;SDS011;18549;42.286;22.688;2022-08-21T09:25:18;6.60;;;4.35;;
32038;SDS011;18549;42.286;22.688;2022-08-21T09:27:49;8.07;;;4.80;;
32038;SDS011;18549;42.286;22.688;2022-08-21T09:30:17;8.60;;;4.68;;
32038;SDS011;18549;42.286;22.688;2022-08-21T09:32:47;6.28;;;4.93;;
32038;SDS011;18549;42.286;22.688;2022-08-21T09:35:17;8.82;;;5.18;;
32038;SDS011;18549;42.286;22.688;2022-08-21T09:40:27;10.48;;;4.97;;
32038;SDS011;18549;42.286;22.688;2022-08-21T09:43:00;9.57;;;5.03;;
32038;SDS011;18549;42.286;22.688;2022-08-21T09:45:31;7.97;;;4.78;;
32038;SDS011;18549;42.286;22.688;2022-08-21T09:48:08;9.23;;;5.55;;
32038;SDS011;18549;42.286;22.688;2022-08-21T09:50:40;13.73;;;6.72;;
32038;SDS011;18549;42.286;22.688;2022-08-21T09:53:16;6.65;;;4.95;;
32038;SDS011;18549;42.286;22.688;2022-08-21T09:55:51;12.07;;;5.97;;
32038;SDS011;18549;42.286;22.688;2022-08-21T09:58:37;17.30;;;5.90;;
32038;SDS011;18549;42.286;22.688;2022-08-21T10:01:12;10.73;;;5.00;;
32038;SDS011;18549;42.286;22.688;2022-08-21T10:03:41;10.73;;;4.45;;
32038;SDS011;18549;42.286;22.688;2022-08-21T10:06:20;8.88;;;4.72;;
32038;SDS011;18549;42.286;22.688;2022-08-21T10:08:50;8.10;;;4.10;;
32038;SDS011;18549;42.286;22.688;2022-08-21T10:11:38;9.27;;;4.68;;
32038;SDS011;18549;42.286;22.688;2022-08-21T10:14:13;7.45;;;3.72;;
32038;SDS011;18549;42.286;22.688;2022-08-21T10:16:52;6.47;;;3.95;;
32038;SDS011;18549;42.286;22.688;2022-08-21T10:19:30;10.88;;;4.57;;
32038;SDS011;18549;42.286;22.688;2022-08-21T10:22:11;11.32;;;4.50;;
32038;SDS011;18549;42.286;22.688;2022-08-21T10:24:49;12.32;;;4.47;;
32038;SDS011;18549;42.286;22.688;2022-08-21T10:27:25;9.52;;;4.22;;
32038;SDS011;18549;42.286;22.688;2022-08-21T10:30:02;13.38;;;4.60;;
32038;SDS011;18549;42.286;22.688;2022-08-21T10:32:41;11.05;;;5.32;;
32038;SDS011;18549;42.286;22.688;2022-08-21T10:35:26;10.57;;;5.57;;
32038;SDS011;18549;42.286;22.688;2022-08-21T10:41:07;8.73;;;5.45;;
32038;SDS011;18549;42.286;22.688;2022-08-21T10:43:47;20.60;;;7.82;;
32038;SDS011;18549;42.286;22.688;2022-08-21T10:46:26;9.05;;;5.75;;
32038;SDS011;18549;42.286;22.688;2022-08-21T10:49:07;14.43;;;6.62;;
32038;SDS011;18549;42.286;22.688;2022-08-21T10:51:45;15.77;;;6.57;;
32038;SDS011;18549;42.286;22.688;2022-08-21T10:54:25;13.50;;;6.82;;
32038;SDS011;18549;42.286;22.688;2022-08-21T10:57:02;14.95;;;7.28;;
32038;SDS011;18549;42.286;22.688;2022-08-21T10:59:38;9.25;;;6.43;;
32038;SDS011;18549;42.286;22.688;2022-08-21T11:02:13;13.30;;;7.22;;
32038;SDS011;18549;42.286;22.688;2022-08-21T11:04:49;13.85;;;5.82;;
32038;SDS011;18549;42.286;22.688;2022-08-21T11:07:21;13.80;;;6.60;;
32038;SDS011;18549;42.286;22.688;2022-08-21T11:09:54;13.75;;;6.72;;
32038;SDS011;18549;42.286;22.688;2022-08-21T11:12:27;11.82;;;7.37;;
32038;SDS011;18549;42.286;22.688;2022-08-21T11:15:06;9.38;;;6.78;;
32038;SDS011;18549;42.286;22.688;2022-08-21T11:17:43;11.05;;;6.57;;
32038;SDS011;18549;42.286;22.688;2022-08-21T11:20:26;10.82;;;6.68;;
32038;SDS011;18549;42.286;22.688;2022-08-21T11:23:01;11.38;;;5.97;;
32038;SDS011;18549;42.286;22.688;2022-08-21T11:25:34;11.40;;;6.43;;
32038;SDS011;18549;42.286;22.688;2022-08-21T11:28:08;11.55;;;6.47;;
32038;SDS011;18549;42.286;22.688;2022-08-21T11:30:41;10.57;;;6.18;;
32038;SDS011;18549;42.286;22.688;2022-08-21T11:33:20;13.07;;;7.22;;
32038;SDS011;18549;42.286;22.688;2022-08-21T11:36:00;12.85;;;7.10;;
32038;SDS011;18549;42.286;22.688;2022-08-21T11:38:39;12.93;;;6.70;;
32038;SDS011;18549;42.286;22.688;2022-08-21T11:41:13;8.35;;;5.35;;
32038;SDS011;18549;42.286;22.688;2022-08-21T11:43:52;7.97;;;4.47;;
32038;SDS011;18549;42.286;22.688;2022-08-21T11:46:28;7.95;;;4.78;;
32038;SDS011;18549;42.286;22.688;2022-08-21T11:49:04;9.77;;;5.05;;
32038;SDS011;18549;42.286;22.688;2022-08-21T11:51:42;9.68;;;4.70;;
32038;SDS011;18549;42.286;22.688;2022-08-21T11:54:16;7.90;;;4.47;;
32038;SDS011;18549;42.286;22.688;2022-08-21T11:56:51;13.38;;;4.72;;
32038;SDS011;18549;42.286;22.688;2022-08-21T11:59:27;10.15;;;4.97;;
32038;SDS011;18549;42.286;22.688;2022-08-21T12:02:05;7.60;;;5.53;;
32038;SDS011;18549;42.286;22.688;2022-08-21T12:04:42;8.80;;;4.90;;
32038;SDS011;18549;42.286;22.688;2022-08-21T12:07:13;9.80;;;5.15;;
32038;SDS011;18549;42.286;22.688;2022-08-21T12:09:51;10.45;;;5.50;;
32038;SDS011;18549;42.286;22.688;2022-08-21T12:12:25;9.05;;;4.72;;
32038;SDS011;18549;42.286;22.688;2022-08-21T12:15:07;8.60;;;5.03;;
32038;SDS011;18549;42.286;22.688;2022-08-21T12:17:51;11.40;;;5.43;;
32038;SDS011;18549;42.286;22.688;2022-08-21T12:20:25;14.15;;;5.20;;
32038;SDS011;18549;42.286;22.688;2022-08-21T12:23:03;11.75;;;5.53;;
32038;SDS011;18549;42.286;22.688;2022-08-21T12:25:42;14.00;;;5.72;;
32038;SDS011;18549;42.286;22.688;2022-08-21T12:28:11;17.60;;;6.50;;
32038;SDS011;18549;42.286;22.688;2022-08-21T12:30:44;10.32;;;6.10;;
32038;SDS011;18549;42.286;22.688;2022-08-21T12:33:20;9.70;;;5.70;;
32038;SDS011;18549;42.286;22.688;2022-08-21T12:35:52;6.65;;;3.92;;
32038;SDS011;18549;42.286;22.688;2022-08-21T12:38:32;9.18;;;4.87;;
32038;SDS011;18549;42.286;22.688;2022-08-21T12:41:12;10.63;;;5.82;;
32038;SDS011;18549;42.286;22.688;2022-08-21T12:43:45;9.38;;;5.07;;
32038;SDS011;18549;42.286;22.688;2022-08-21T12:46:21;12.43;;;5.78;;
32038;SDS011;18549;42.286;22.688;2022-08-21T12:48:55;14.25;;;6.05;;
32038;SDS011;18549;42.286;22.688;2022-08-21T12:51:28;5.90;;;4.70;;
32038;SDS011;18549;42.286;22.688;2022-08-21T12:53:59;17.62;;;5.97;;
32038;SDS011;18549;42.286;22.688;2022-08-21T12:56:30;9.85;;;5.50;;
32038;SDS011;18549;42.286;22.688;2022-08-21T12:59:01;12.15;;;5.32;;
32038;SDS011;18549;42.286;22.688;2022-08-21T13:01:33;9.93;;;5.37;;
32038;SDS011;18549;42.286;22.688;2022-08-21T13:04:04;17.83;;;6.47;;
32038;SDS011;18549;42.286;22.688;2022-08-21T13:06:39;9.07;;;6.90;;
32038;SDS011;18549;42.286;22.688;2022-08-21T13:09:10;13.85;;;8.25;;
32038;SDS011;18549;42.286;22.688;2022-08-21T13:11:39;11.77;;;8.88;;
32038;SDS011;18549;42.286;22.688;2022-08-21T13:14:10;12.93;;;9.50;;
32038;SDS011;18549;42.286;22.688;2022-08-21T13:16:46;15.52;;;9.98;;
32038;SDS011;18549;42.286;22.688;2022-08-21T13:19:16;11.10;;;9.13;;
32038;SDS011;18549;42.286;22.688;2022-08-21T13:21:45;16.65;;;9.77;;
32038;SDS011;18549;42.286;22.688;2022-08-21T13:24:13;12.85;;;9.27;;
32038;SDS011;18549;42.286;22.688;2022-08-21T13:26:43;18.62;;;9.55;;
32038;SDS011;18549;42.286;22.688;2022-08-21T13:29:13;13.70;;;9.05;;
32038;SDS011;18549;42.286;22.688;2022-08-21T13:31:48;14.32;;;9.65;;
32038;SDS011;18549;42.286;22.688;2022-08-21T13:34:18;20.40;;;10.10;;
32038;SDS011;18549;42.286;22.688;2022-08-21T13:36:47;16.92;;;8.23;;
32038;SDS011;18549;42.286;22.688;2022-08-21T13:39:15;12.02;;;7.95;;
32038;SDS011;18549;42.286;22.688;2022-08-21T13:41:46;11.65;;;8.38;;
32038;SDS011;18549;42.286;22.688;2022-08-21T13:44:19;12.32;;;7.60;;
32038;SDS011;18549;42.286;22.688;2022-08-21T13:46:53;17.70;;;7.65;;
32038;SDS011;18549;42.286;22.688;2022-08-21T13:49:24;13.57;;;7.32;;
32038;SDS011;18549;42.286;22.688;2022-08-21T13:51:59;18.12;;;7.50;;
32038;SDS011;18549;42.286;22.688;2022-08-21T13:54:29;15.85;;;7.93;;
32038;SDS011;18549;42.286;22.688;2022-08-21T13:57:02;12.93;;;7.68;;
32038;SDS011;18549;42.286;22.688;2022-08-21T13:59:32;19.30;;;7.75;;
32038;SDS011;18549;42.286;22.688;2022-08-21T14:02:10;17.85;;;7.68;;
32038;SDS011;18549;42.286;22.688;2022-08-21T14:04:42;16.55;;;7.87;;
32038;SDS011;18549;42.286;22.688;2022-08-21T14:07:17;15.18;;;8.10;;
32038;SDS011;18549;42.286;22.688;2022-08-21T14:09:46;17.70;;;8.98;;
32038;SDS011;18549;42.286;22.688;2022-08-21T14:12:15;14.68;;;9.45;;
32038;SDS011;18549;42.286;22.688;2022-08-21T14:14:45;15.82;;;9.48;;
32038;SDS011;18549;42.286;22.688;2022-08-21T14:17:26;12.73;;;8.93;;
32038;SDS011;18549;42.286;22.688;2022-08-21T14:19:56;23.12;;;9.82;;
32038;SDS011;18549;42.286;22.688;2022-08-21T14:22:28;14.25;;;10.43;;
32038;SDS011;18549;42.286;22.688;2022-08-21T14:24:59;16.48;;;10.20;;
32038;SDS011;18549;42.286;22.688;2022-08-21T14:27:29;23.27;;;10.02;;
32038;SDS011;18549;42.286;22.688;2022-08-21T14:29:58;17.17;;;10.60;;
32038;SDS011;18549;42.286;22.688;2022-08-21T14:32:29;18.73;;;10.73;;
32038;SDS011;18549;42.286;22.688;2022-08-21T14:35:03;16.17;;;10.75;;
32038;SDS011;18549;42.286;22.688;2022-08-21T14:37:31;17.45;;;11.55;;
32038;SDS011;18549;42.286;22.688;2022-08-21T14:39:58;13.43;;;10.30;;
32038;SDS011;18549;42.286;22.688;2022-08-21T14:42:26;13.05;;;10.30;;
32038;SDS011;18549;42.286;22.688;2022-08-21T14:44:59;17.45;;;11.02;;
32038;SDS011;18549;42.286;22.688;2022-08-21T14:47:30;14.40;;;9.98;;
32038;SDS011;18549;42.286;22.688;2022-08-21T14:49:58;13.02;;;10.40;;
32038;SDS011;18549;42.286;22.688;2022-08-21T14:52:25;14.25;;;9.63;;